createdAt,value
2023-04-09T10:08:22.735Z,17.87
2023-04-09T10:10:52.228Z,15.28
2023-04-09T10:13:21.222Z,15.25
2023-04-09T10:15:50.541Z,15.40
2023-04-09T10:18:19.831Z,15.58
2023-04-09T10:20:49.127Z,14.30
2023-04-09T10:23:18.420Z,15.55
2023-04-09T10:25:47.830Z,15.45
2023-04-09T10:28:17.129Z,14.45
2023-04-09T10:30:46.726Z,14.28
2023-04-09T10:33:16.140Z,13.58
2023-04-09T10:35:45.357Z,13.40
2023-04-09T10:38:14.526Z,13.80
2023-04-09T10:40:43.741Z,12.45
2023-04-09T10:43:13.345Z,13.62
2023-04-09T10:45:42.597Z,13.43
2023-04-09T10:48:12.050Z,13.28
2023-04-09T10:50:41.346Z,13.88
2023-04-09T10:53:10.334Z,12.40
2023-04-09T10:55:39.658Z,13.05
2023-04-09T10:58:11.302Z,12.98
2023-04-09T11:00:39.593Z,13.75
2023-04-09T11:03:08.764Z,12.10
2023-04-09T11:05:37.895Z,13.03
2023-04-09T11:08:07.079Z,12.20
2023-04-09T11:10:36.367Z,11.85
2023-04-09T11:13:05.665Z,12.07
2023-04-09T11:15:35.064Z,12.05
2023-04-09T11:18:04.193Z,11.12
2023-04-09T11:20:33.461Z,13.22
2023-04-09T11:23:02.970Z,11.85
2023-04-09T11:25:32.158Z,11.93
2023-04-09T11:28:01.361Z,12.28
2023-04-09T11:30:30.669Z,12.95
2023-04-09T11:33:00.022Z,11.25
2023-04-09T11:35:29.171Z,11.30
2023-04-09T11:37:58.544Z,10.53
2023-04-09T11:40:27.866Z,11.18
2023-04-09T11:42:57.060Z,10.55
2023-04-09T11:45:26.036Z,13.45
2023-04-09T11:47:55.618Z,10.82
2023-04-09T11:50:24.814Z,11.25
2023-04-09T11:52:53.852Z,11.20
2023-04-09T11:55:23.159Z,10.98
2023-04-09T11:57:52.561Z,10.60
2023-04-09T12:00:21.652Z,10.43
2023-04-09T12:02:50.897Z,12.15
2023-04-09T12:05:42.818Z,12.47
2023-04-09T12:08:11.779Z,11.00
2023-04-09T12:10:40.876Z,10.67
2023-04-09T12:13:10.213Z,10.70
2023-04-09T12:15:42.471Z,10.65
2023-04-09T12:18:14.968Z,11.13
2023-04-09T12:20:44.552Z,10.88
2023-04-09T12:23:13.720Z,10.80
2023-04-09T12:25:42.933Z,12.30
2023-04-09T12:28:12.640Z,10.80
2023-04-09T12:30:41.941Z,10.90
2023-04-09T12:33:11.505Z,12.00
2023-04-09T12:35:40.814Z,10.58
2023-04-09T12:38:09.842Z,9.90
2023-04-09T12:40:39.383Z,9.63
2023-04-09T12:43:08.634Z,9.83
2023-04-09T12:45:37.959Z,10.53
2023-04-09T12:48:07.271Z,10.10
2023-04-09T12:50:36.941Z,10.13
2023-04-09T12:53:06.142Z,10.08
2023-04-09T12:55:35.449Z,10.13
2023-04-09T12:58:04.750Z,9.90
2023-04-09T13:00:34.366Z,9.60
2023-04-09T13:03:05.067Z,9.93
2023-04-09T13:05:35.015Z,10.13
2023-04-09T13:08:04.530Z,9.73
2023-04-09T13:10:33.600Z,9.97
2023-04-09T13:13:02.838Z,9.90
2023-04-09T13:15:32.056Z,9.60
2023-04-09T13:18:04.760Z,8.40
2023-04-09T13:20:34.255Z,7.50
2023-04-09T13:23:03.852Z,7.00
2023-04-09T13:25:33.386Z,6.20
2023-04-09T13:28:03.188Z,5.62
2023-04-09T13:30:32.762Z,5.37
2023-04-09T13:33:02.378Z,4.90
2023-04-09T13:35:31.819Z,5.05
2023-04-09T13:38:01.913Z,5.50
2023-04-09T13:40:34.796Z,4.83
2023-04-09T13:43:04.403Z,4.70
2023-04-09T13:45:34.429Z,5.03
2023-04-09T13:48:04.264Z,4.55
2023-04-09T13:50:33.423Z,4.37
2023-04-09T13:53:02.732Z,4.92
2023-04-09T13:55:32.264Z,6.22
2023-04-09T13:58:01.515Z,5.62
2023-04-09T14:00:30.418Z,5.03
2023-04-09T14:02:59.734Z,5.30
2023-04-09T14:05:29.020Z,3.47
2023-04-09T14:07:58.429Z,3.95
2023-04-09T14:10:27.628Z,3.58
2023-04-09T14:12:56.689Z,3.83
2023-04-09T14:15:25.707Z,4.15
2023-04-09T14:17:55.078Z,4.45
2023-04-09T14:20:24.214Z,3.93
2023-04-09T14:22:53.091Z,3.52
2023-04-09T14:25:22.523Z,3.37
2023-04-09T14:27:52.014Z,3.00
2023-04-09T14:30:21.108Z,3.30
2023-04-09T14:32:50.258Z,2.93
2023-04-09T14:35:19.532Z,3.08
2023-04-09T14:37:48.800Z,3.05
2023-04-09T14:40:17.801Z,3.60
2023-04-09T14:42:46.791Z,3.55
2023-04-09T14:45:16.197Z,3.37
2023-04-09T14:47:45.442Z,2.50
2023-04-09T14:50:14.708Z,2.65
2023-04-09T14:52:44.014Z,2.72
2023-04-09T14:55:13.201Z,2.37
2023-04-09T14:57:42.391Z,4.97
2023-04-09T15:00:11.793Z,2.27
2023-04-09T15:02:41.670Z,2.83
2023-04-09T15:05:11.014Z,2.65
2023-04-09T15:07:40.317Z,2.45
2023-04-09T15:10:09.613Z,2.80
2023-04-09T15:12:38.849Z,2.80
2023-04-09T15:15:08.109Z,3.85
2023-04-09T15:17:37.458Z,2.20
2023-04-09T15:20:06.703Z,2.75
2023-04-09T15:22:35.822Z,3.37
2023-04-09T15:25:05.112Z,4.60
2023-04-09T15:27:34.405Z,3.95
2023-04-09T15:30:03.598Z,2.67
2023-04-09T15:32:33.027Z,3.20
2023-04-09T15:35:02.410Z,3.03
2023-04-09T15:37:31.603Z,2.47
2023-04-09T15:40:00.901Z,3.17
2023-04-09T15:42:30.213Z,2.42
2023-04-09T15:44:59.296Z,2.50
2023-04-09T15:47:29.582Z,2.22
2023-04-09T15:49:59.242Z,2.80
2023-04-09T15:52:28.736Z,2.72
2023-04-09T15:54:58.029Z,2.12
2023-04-09T15:57:27.246Z,2.23
2023-04-09T15:59:56.542Z,2.55
2023-04-09T16:02:26.223Z,1.90
2023-04-09T16:04:55.848Z,2.12
2023-04-09T16:07:25.073Z,2.37
2023-04-09T16:09:54.259Z,2.17
2023-04-09T16:12:23.451Z,1.77
2023-04-09T16:14:52.754Z,2.33
2023-04-09T16:17:22.067Z,2.80
2023-04-09T16:19:51.473Z,1.92
2023-04-09T16:22:20.756Z,2.40
2023-04-09T16:24:50.072Z,2.05
2023-04-09T16:27:19.033Z,2.60
2023-04-09T16:29:48.249Z,2.60
2023-04-09T16:32:17.464Z,2.27
2023-04-09T16:34:46.854Z,1.93
2023-04-09T16:37:16.043Z,2.70
2023-04-09T16:39:45.341Z,2.00
2023-04-09T16:42:14.657Z,2.00
2023-04-09T16:44:43.741Z,2.53
2023-04-09T16:47:13.045Z,2.12
2023-04-09T16:49:42.357Z,2.13
2023-04-09T16:52:11.450Z,2.02
2023-04-09T16:54:40.738Z,1.98
2023-04-09T16:57:10.137Z,2.20
2023-04-09T16:59:39.348Z,2.27
2023-04-09T17:02:08.490Z,2.25
2023-04-09T17:04:37.859Z,2.85
2023-04-09T17:07:07.262Z,2.40
2023-04-09T17:09:36.640Z,2.75
2023-04-09T17:12:05.846Z,1.90
2023-04-09T17:14:35.248Z,2.12
2023-04-09T17:17:04.532Z,2.20
2023-04-09T17:19:33.955Z,2.50
2023-04-09T17:22:03.277Z,2.07
2023-04-09T17:24:32.243Z,3.70
2023-04-09T17:27:01.442Z,2.70
2023-04-09T17:29:30.435Z,2.30
2023-04-09T17:31:59.422Z,2.50
2023-04-09T17:34:28.312Z,2.25
2023-04-09T17:36:57.350Z,3.20
2023-04-09T17:39:26.618Z,2.10
2023-04-09T17:41:55.812Z,2.35
2023-04-09T17:44:24.926Z,2.50
2023-04-09T17:46:54.088Z,2.40
2023-04-09T17:49:23.303Z,2.30
2023-04-09T17:51:52.607Z,1.77
2023-04-09T17:54:21.601Z,2.50
2023-04-09T17:56:50.491Z,2.23
2023-04-09T17:59:19.389Z,2.98
2023-04-09T18:01:48.570Z,2.27
2023-04-09T18:04:17.798Z,3.15
2023-04-09T18:06:47.181Z,2.95
2023-04-09T18:09:16.495Z,2.13
2023-04-09T18:11:45.471Z,1.95
2023-04-09T18:14:14.677Z,2.37
2023-04-09T18:16:43.664Z,2.42
2023-04-09T18:19:13.069Z,2.35
2023-04-09T18:21:41.953Z,2.37
2023-04-09T18:24:11.261Z,1.82
2023-04-09T18:26:40.153Z,2.10
2023-04-09T18:29:09.142Z,2.00
2023-04-09T18:31:38.365Z,2.40
2023-04-09T18:34:07.544Z,2.50
2023-04-09T18:36:36.531Z,1.90
2023-04-09T18:39:05.423Z,1.90
2023-04-09T18:41:34.522Z,1.70
2023-04-09T18:44:03.930Z,1.90
2023-04-09T18:46:33.266Z,2.17
2023-04-09T18:49:02.422Z,1.75
2023-04-09T18:51:31.620Z,2.25
2023-04-09T18:54:00.514Z,2.43
2023-04-09T18:56:29.517Z,2.52
2023-04-09T18:58:58.599Z,2.33
2023-04-09T19:01:28.041Z,2.95
2023-04-09T19:03:57.164Z,2.72
2023-04-09T19:06:26.612Z,2.10
2023-04-09T19:08:56.073Z,2.98
2023-04-09T19:11:25.106Z,3.10
2023-04-09T19:13:54.098Z,2.52
2023-04-09T19:16:23.459Z,3.40
2023-04-09T19:18:53.115Z,2.42
2023-04-09T19:21:22.445Z,2.85
2023-04-09T19:23:51.510Z,2.77
2023-04-09T19:26:20.502Z,2.25
2023-04-09T19:28:49.599Z,2.83
2023-04-09T19:31:18.918Z,2.87
2023-04-09T19:33:48.205Z,2.30
2023-04-09T19:36:17.087Z,2.40
2023-04-09T19:38:45.975Z,2.10
2023-04-09T19:41:15.281Z,2.65
2023-04-09T19:43:44.163Z,2.17
2023-04-09T19:46:13.275Z,2.00
2023-04-09T19:48:42.445Z,2.27
2023-04-09T19:51:11.661Z,3.00
2023-04-09T19:53:40.545Z,1.92
2023-04-09T19:56:56.750Z,2.00
2023-04-09T19:59:25.953Z,2.35
2023-04-09T20:01:55.196Z,2.05
2023-04-09T20:04:24.546Z,1.90
2023-04-09T20:06:53.852Z,2.15
2023-04-09T20:09:23.135Z,1.83
2023-04-09T20:11:52.240Z,2.60
2023-04-09T20:14:21.442Z,1.80
2023-04-09T20:16:50.800Z,2.45
2023-04-09T20:19:20.050Z,2.08
2023-04-09T20:21:49.554Z,2.17
2023-04-09T20:24:18.432Z,2.40
2023-04-09T20:26:47.527Z,2.10
2023-04-09T20:29:16.731Z,1.55
2023-04-09T20:31:46.096Z,2.13
2023-04-09T20:34:15.352Z,2.40
2023-04-09T20:36:44.635Z,1.82
2023-04-09T20:39:13.934Z,2.20
2023-04-09T20:41:43.024Z,2.67
2023-04-09T20:44:12.232Z,2.33
2023-04-09T20:46:41.530Z,2.37
2023-04-09T20:49:10.716Z,1.92
2023-04-09T20:51:39.808Z,2.00
2023-04-09T20:54:09.217Z,2.62
2023-04-09T20:56:38.332Z,2.37
2023-04-09T20:59:07.612Z,2.00
2023-04-09T21:01:36.868Z,2.17
2023-04-09T21:04:06.149Z,1.95
2023-04-09T21:06:38.995Z,2.12
2023-04-09T21:09:08.213Z,1.98
2023-04-09T21:11:37.505Z,2.35
2023-04-09T21:14:06.808Z,2.20
2023-04-09T21:16:35.907Z,2.20
2023-04-09T21:19:05.201Z,1.80
2023-04-09T21:21:34.414Z,1.62
2023-04-09T21:24:03.596Z,1.77
2023-04-09T21:26:45.314Z,3.02
2023-04-09T21:29:03.650Z,1.92
2023-04-09T21:31:33.143Z,1.80
2023-04-09T21:34:02.157Z,1.83
2023-04-09T21:36:31.439Z,1.90
2023-04-09T21:39:00.634Z,1.85
2023-04-09T21:41:29.919Z,2.20
2023-04-09T21:43:59.243Z,1.70
2023-04-09T21:46:28.431Z,1.80
